aviador You're here:

LDZD Decoded Metar

ZADAR in CROATIA
Report Time2017-12-15 17:30:00
UTC Time2017-12-15 17:53:16
Flight Rules vfr VFR
Wind170° at 07 kt
W.Decomp.*RWY 14: 6.2 kt HW 3.3 kt RCW
RWY 22: 4.3 kt HW 5.5 kt LCW
W.Rank170° ranks 22
Current wind is below 170° avg. (7.3)
Visibility9999 m
Phenomena:Light Rain
Clouds:Few 018 Hf
Overcast 070 Hf
Expected CloudBase > 400 ft AGL from Temp-Dew spread
Ceiling7,000 ft
Temp13°C (ISA -1)
Dew Point12°C (94% RH)
AAT11.1°C
QNH0996 hPa
Density Alt873 ft
Elevation276 ft
Report Wrong Elevation
Raw Report
LDZD 151730Z 17007KT 9999 -RA FEW018 OVC070 13/12 Q0996 NOSIG=

Extra information for LDZD:More info

Metar Taf Metar & Taf Last 4 Metars F.Rules Stats Wind Profile Meteogram Temp Stats Airport Information Weather charts Add Link Nearby VenuesMetar ALERT Operation Metar Decoded Social comments